sensor_id;sensor_type;location;lat;lon;timestamp;temperature;humidity
32694;DHT22;19084;44.716;10.218;2022-09-17T00:02:10;21.90;99.90
32694;DHT22;19084;44.716;10.218;2022-09-17T00:04:47;21.90;99.90
32694;DHT22;19084;44.716;10.218;2022-09-17T00:07:20;21.90;99.90
32694;DHT22;19084;44.716;10.218;2022-09-17T00:09:52;21.80;99.90
32694;DHT22;19084;44.716;10.218;2022-09-17T00:12:25;21.80;99.90
32694;DHT22;19084;44.716;10.218;2022-09-17T00:14:58;21.80;99.90
32694;DHT22;19084;44.716;10.218;2022-09-17T00:17:31;21.70;99.90
32694;DHT22;19084;44.716;10.218;2022-09-17T00:20:04;21.60;99.90
32694;DHT22;19084;44.716;10.218;2022-09-17T00:22:41;21.50;99.90
32694;DHT22;19084;44.716;10.218;2022-09-17T00:25:14;21.50;99.90
32694;DHT22;19084;44.716;10.218;2022-09-17T00:27:47;21.50;99.90
32694;DHT22;19084;44.716;10.218;2022-09-17T00:30:20;21.40;99.90
32694;DHT22;19084;44.716;10.218;2022-09-17T00:32:53;21.40;99.90
32694;DHT22;19084;44.716;10.218;2022-09-17T00:35:29;21.40;99.90
32694;DHT22;19084;44.716;10.218;2022-09-17T00:38:01;21.50;99.90
32694;DHT22;19084;44.716;10.218;2022-09-17T00:40:34;21.40;99.90
32694;DHT22;19084;44.716;10.218;2022-09-17T00:43:10;21.40;99.90
32694;DHT22;19084;44.716;10.218;2022-09-17T00:45:43;21.30;99.90
32694;DHT22;19084;44.716;10.218;2022-09-17T00:48:16;21.30;99.90
32694;DHT22;19084;44.716;10.218;2022-09-17T00:50:49;21.30;99.90
32694;DHT22;19084;44.716;10.218;2022-09-17T00:53:24;21.30;99.90
32694;DHT22;19084;44.716;10.218;2022-09-17T00:56:02;21.30;99.90
32694;DHT22;19084;44.716;10.218;2022-09-17T00:58:36;21.30;99.90
32694;DHT22;19084;44.716;10.218;2022-09-17T01:01:12;21.30;99.90
32694;DHT22;19084;44.716;10.218;2022-09-17T01:03:46;21.20;99.90
32694;DHT22;19084;44.716;10.218;2022-09-17T01:06:33;21.20;99.90
32694;DHT22;19084;44.716;10.218;2022-09-17T01:09:16;21.20;99.90
32694;DHT22;19084;44.716;10.218;2022-09-17T01:12:01;21.20;99.90
32694;DHT22;19084;44.716;10.218;2022-09-17T01:34:55;21.10;99.90
32694;DHT22;19084;44.716;10.218;2022-09-17T01:40:55;21.10;99.90
32694;DHT22;19084;44.716;10.218;2022-09-17T01:43:39;21.10;99.90
32694;DHT22;19084;44.716;10.218;2022-09-17T01:46:29;21.10;99.90
32694;DHT22;19084;44.716;10.218;2022-09-17T01:49:05;21.00;99.90
32694;DHT22;19084;44.716;10.218;2022-09-17T01:51:42;21.00;99.90
32694;DHT22;19084;44.716;10.218;2022-09-17T01:56:55;21.00;99.90
32694;DHT22;19084;44.716;10.218;2022-09-17T01:59:37;20.90;99.90
32694;DHT22;19084;44.716;10.218;2022-09-17T02:02:20;20.90;99.90
32694;DHT22;19084;44.716;10.218;2022-09-17T02:05:03;20.90;99.90
32694;DHT22;19084;44.716;10.218;2022-09-17T02:07:45;20.90;99.90
32694;DHT22;19084;44.716;10.218;2022-09-17T02:10:26;20.90;99.90
32694;DHT22;19084;44.716;10.218;2022-09-17T02:13:07;20.80;99.90
32694;DHT22;19084;44.716;10.218;2022-09-17T02:15:45;20.80;99.90
32694;DHT22;19084;44.716;10.218;2022-09-17T02:18:27;20.80;99.90
32694;DHT22;19084;44.716;10.218;2022-09-17T02:21:08;20.70;99.90
32694;DHT22;19084;44.716;10.218;2022-09-17T02:26:49;20.70;99.90
32694;DHT22;19084;44.716;10.218;2022-09-17T02:32:02;20.60;99.90
32694;DHT22;19084;44.716;10.218;2022-09-17T02:34:34;20.60;99.90
32694;DHT22;19084;44.716;10.218;2022-09-17T02:37:07;20.60;99.90
32694;DHT22;19084;44.716;10.218;2022-09-17T02:39:40;20.60;99.90
32694;DHT22;19084;44.716;10.218;2022-09-17T02:45:21;20.50;99.90
32694;DHT22;19084;44.716;10.218;2022-09-17T02:53:57;20.40;99.90
32694;DHT22;19084;44.716;10.218;2022-09-17T03:01:57;20.40;99.90
32694;DHT22;19084;44.716;10.218;2022-09-17T03:04:33;20.30;99.90
32694;DHT22;19084;44.716;10.218;2022-09-17T03:07:08;20.30;99.90
32694;DHT22;19084;44.716;10.218;2022-09-17T03:09:43;20.20;99.90
32694;DHT22;19084;44.716;10.218;2022-09-17T03:12:16;20.20;99.90
32694;DHT22;19084;44.716;10.218;2022-09-17T03:14:49;20.20;99.90
32694;DHT22;19084;44.716;10.218;2022-09-17T03:17:21;20.10;99.90
32694;DHT22;19084;44.716;10.218;2022-09-17T03:19:54;20.10;99.90
32694;DHT22;19084;44.716;10.218;2022-09-17T03:22:26;20.10;99.90
32694;DHT22;19084;44.716;10.218;2022-09-17T03:24:59;20.10;99.90
32694;DHT22;19084;44.716;10.218;2022-09-17T03:27:31;20.00;99.90
32694;DHT22;19084;44.716;10.218;2022-09-17T03:30:05;20.00;99.90
32694;DHT22;19084;44.716;10.218;2022-09-17T03:32:38;20.10;99.90
32694;DHT22;19084;44.716;10.218;2022-09-17T03:35:10;19.90;99.90
32694;DHT22;19084;44.716;10.218;2022-09-17T03:37:43;19.80;99.90
32694;DHT22;19084;44.716;10.218;2022-09-17T03:40:15;19.60;99.90
32694;DHT22;19084;44.716;10.218;2022-09-17T03:42:48;19.50;99.90
32694;DHT22;19084;44.716;10.218;2022-09-17T03:45:21;19.20;99.90
32694;DHT22;19084;44.716;10.218;2022-09-17T03:47:53;19.10;99.90
32694;DHT22;19084;44.716;10.218;2022-09-17T03:50:27;19.00;99.90
32694;DHT22;19084;44.716;10.218;2022-09-17T03:53:00;18.90;99.90
32694;DHT22;19084;44.716;10.218;2022-09-17T03:55:32;18.70;99.90
32694;DHT22;19084;44.716;10.218;2022-09-17T03:58:05;18.70;99.90
32694;DHT22;19084;44.716;10.218;2022-09-17T04:00:38;18.60;99.90
32694;DHT22;19084;44.716;10.218;2022-09-17T04:03:11;18.70;99.90
32694;DHT22;19084;44.716;10.218;2022-09-17T04:05:44;18.70;99.90
32694;DHT22;19084;44.716;10.218;2022-09-17T04:08:17;18.70;99.90
32694;DHT22;19084;44.716;10.218;2022-09-17T04:10:50;18.60;99.90
32694;DHT22;19084;44.716;10.218;2022-09-17T04:13:23;18.60;99.90
32694;DHT22;19084;44.716;10.218;2022-09-17T04:15:56;18.60;99.90
32694;DHT22;19084;44.716;10.218;2022-09-17T04:18:28;18.60;99.90
32694;DHT22;19084;44.716;10.218;2022-09-17T04:21:01;18.60;99.90
32694;DHT22;19084;44.716;10.218;2022-09-17T04:23:33;18.60;99.90
32694;DHT22;19084;44.716;10.218;2022-09-17T04:26:06;18.60;99.90
32694;DHT22;19084;44.716;10.218;2022-09-17T04:28:39;18.50;99.90
32694;DHT22;19084;44.716;10.218;2022-09-17T04:31:11;18.50;99.90
32694;DHT22;19084;44.716;10.218;2022-09-17T04:33:44;18.40;99.90
32694;DHT22;19084;44.716;10.218;2022-09-17T04:36:17;18.20;99.90
32694;DHT22;19084;44.716;10.218;2022-09-17T04:38:49;18.10;99.90
32694;DHT22;19084;44.716;10.218;2022-09-17T04:41:22;18.00;99.90
32694;DHT22;19084;44.716;10.218;2022-09-17T04:43:54;18.00;99.90
32694;DHT22;19084;44.716;10.218;2022-09-17T04:46:27;18.00;99.90
32694;DHT22;19084;44.716;10.218;2022-09-17T04:49:00;17.90;99.90
32694;DHT22;19084;44.716;10.218;2022-09-17T04:51:32;17.80;99.90
32694;DHT22;19084;44.716;10.218;2022-09-17T04:54:05;17.70;99.90
32694;DHT22;19084;44.716;10.218;2022-09-17T04:56:38;17.70;99.90
32694;DHT22;19084;44.716;10.218;2022-09-17T04:59:11;17.80;99.90
32694;DHT22;19084;44.716;10.218;2022-09-17T05:01:43;17.80;99.90
32694;DHT22;19084;44.716;10.218;2022-09-17T05:04:16;17.70;99.90
32694;DHT22;19084;44.716;10.218;2022-09-17T05:06:49;17.70;99.90
32694;DHT22;19084;44.716;10.218;2022-09-17T05:09:22;17.70;99.90
32694;DHT22;19084;44.716;10.218;2022-09-17T05:11:54;17.80;99.90
32694;DHT22;19084;44.716;10.218;2022-09-17T05:14:27;17.70;99.90
32694;DHT22;19084;44.716;10.218;2022-09-17T05:16:59;17.60;99.90
32694;DHT22;19084;44.716;10.218;2022-09-17T05:19:32;17.60;99.90
32694;DHT22;19084;44.716;10.218;2022-09-17T05:22:04;17.50;99.90
32694;DHT22;19084;44.716;10.218;2022-09-17T05:24:37;17.50;99.90
32694;DHT22;19084;44.716;10.218;2022-09-17T05:27:11;17.50;99.90
32694;DHT22;19084;44.716;10.218;2022-09-17T05:29:43;17.50;99.90
32694;DHT22;19084;44.716;10.218;2022-09-17T05:32:16;17.40;99.90
32694;DHT22;19084;44.716;10.218;2022-09-17T05:34:49;17.40;99.90
32694;DHT22;19084;44.716;10.218;2022-09-17T05:37:21;17.40;99.90
32694;DHT22;19084;44.716;10.218;2022-09-17T05:39:54;17.40;99.90
32694;DHT22;19084;44.716;10.218;2022-09-17T05:42:27;17.30;99.90
32694;DHT22;19084;44.716;10.218;2022-09-17T05:45:00;17.30;99.90
32694;DHT22;19084;44.716;10.218;2022-09-17T05:47:32;17.10;99.90
32694;DHT22;19084;44.716;10.218;2022-09-17T05:50:07;17.00;99.90
32694;DHT22;19084;44.716;10.218;2022-09-17T05:52:39;16.80;99.90
32694;DHT22;19084;44.716;10.218;2022-09-17T05:55:12;16.80;99.90
32694;DHT22;19084;44.716;10.218;2022-09-17T05:57:45;16.70;99.90
32694;DHT22;19084;44.716;10.218;2022-09-17T06:00:18;16.70;99.90
32694;DHT22;19084;44.716;10.218;2022-09-17T06:02:55;16.70;99.90
32694;DHT22;19084;44.716;10.218;2022-09-17T06:05:27;16.80;99.90
32694;DHT22;19084;44.716;10.218;2022-09-17T06:08:00;16.80;99.90
32694;DHT22;19084;44.716;10.218;2022-09-17T06:10:37;16.90;99.90
32694;DHT22;19084;44.716;10.218;2022-09-17T06:13:10;16.80;99.90
32694;DHT22;19084;44.716;10.218;2022-09-17T06:15:47;16.80;99.90
32694;DHT22;19084;44.716;10.218;2022-09-17T06:18:20;16.90;99.90
32694;DHT22;19084;44.716;10.218;2022-09-17T06:20:55;16.90;99.90
32694;DHT22;19084;44.716;10.218;2022-09-17T06:23:32;16.90;99.90
32694;DHT22;19084;44.716;10.218;2022-09-17T06:26:06;16.90;99.90
32694;DHT22;19084;44.716;10.218;2022-09-17T06:28:39;17.00;99.90
32694;DHT22;19084;44.716;10.218;2022-09-17T06:31:13;17.00;99.90
32694;DHT22;19084;44.716;10.218;2022-09-17T06:33:46;16.90;99.90
32694;DHT22;19084;44.716;10.218;2022-09-17T06:36:19;16.80;99.90
32694;DHT22;19084;44.716;10.218;2022-09-17T06:38:52;16.70;99.90
32694;DHT22;19084;44.716;10.218;2022-09-17T06:41:24;16.60;99.90
32694;DHT22;19084;44.716;10.218;2022-09-17T06:43:59;16.60;99.90
32694;DHT22;19084;44.716;10.218;2022-09-17T06:46:33;16.60;99.90
32694;DHT22;19084;44.716;10.218;2022-09-17T06:49:06;16.40;99.90
32694;DHT22;19084;44.716;10.218;2022-09-17T06:51:38;16.40;99.90
32694;DHT22;19084;44.716;10.218;2022-09-17T06:54:11;16.30;99.90
32694;DHT22;19084;44.716;10.218;2022-09-17T06:56:45;16.30;99.90
32694;DHT22;19084;44.716;10.218;2022-09-17T06:59:18;16.20;99.90
32694;DHT22;19084;44.716;10.218;2022-09-17T07:01:51;16.20;99.90
32694;DHT22;19084;44.716;10.218;2022-09-17T07:04:24;16.30;99.90
32694;DHT22;19084;44.716;10.218;2022-09-17T07:06:56;16.20;99.90
32694;DHT22;19084;44.716;10.218;2022-09-17T07:09:29;16.20;99.90
32694;DHT22;19084;44.716;10.218;2022-09-17T07:12:06;16.20;99.90
32694;DHT22;19084;44.716;10.218;2022-09-17T07:14:39;16.30;99.90
32694;DHT22;19084;44.716;10.218;2022-09-17T07:17:12;16.30;99.90
32694;DHT22;19084;44.716;10.218;2022-09-17T07:19:45;16.30;99.90
32694;DHT22;19084;44.716;10.218;2022-09-17T07:22:18;16.40;99.90
32694;DHT22;19084;44.716;10.218;2022-09-17T07:24:50;16.30;99.90
32694;DHT22;19084;44.716;10.218;2022-09-17T07:27:22;16.40;99.90
32694;DHT22;19084;44.716;10.218;2022-09-17T07:29:56;16.40;99.90
32694;DHT22;19084;44.716;10.218;2022-09-17T07:32:29;16.50;99.90
32694;DHT22;19084;44.716;10.218;2022-09-17T07:35:03;16.60;99.90
32694;DHT22;19084;44.716;10.218;2022-09-17T07:37:35;16.60;99.90
32694;DHT22;19084;44.716;10.218;2022-09-17T07:40:08;16.60;99.90
32694;DHT22;19084;44.716;10.218;2022-09-17T07:42:41;16.70;99.90
32694;DHT22;19084;44.716;10.218;2022-09-17T07:45:14;16.60;99.90
32694;DHT22;19084;44.716;10.218;2022-09-17T07:47:46;16.50;99.90
32694;DHT22;19084;44.716;10.218;2022-09-17T07:50:19;16.50;99.90
32694;DHT22;19084;44.716;10.218;2022-09-17T07:52:52;16.40;99.90
32694;DHT22;19084;44.716;10.218;2022-09-17T07:55:25;16.40;99.90
32694;DHT22;19084;44.716;10.218;2022-09-17T07:57:58;16.30;99.90
32694;DHT22;19084;44.716;10.218;2022-09-17T08:00:31;16.30;99.90
32694;DHT22;19084;44.716;10.218;2022-09-17T08:03:04;16.20;99.90
32694;DHT22;19084;44.716;10.218;2022-09-17T08:05:36;16.20;99.90
32694;DHT22;19084;44.716;10.218;2022-09-17T08:08:09;16.20;99.90
32694;DHT22;19084;44.716;10.218;2022-09-17T08:10:42;16.20;99.90
32694;DHT22;19084;44.716;10.218;2022-09-17T08:13:14;16.10;99.90
32694;DHT22;19084;44.716;10.218;2022-09-17T08:15:47;16.10;99.90
32694;DHT22;19084;44.716;10.218;2022-09-17T08:18:19;16.00;99.90
32694;DHT22;19084;44.716;10.218;2022-09-17T08:20:56;16.00;99.90
32694;DHT22;19084;44.716;10.218;2022-09-17T08:23:30;15.90;99.90
32694;DHT22;19084;44.716;10.218;2022-09-17T08:26:08;15.90;99.90
32694;DHT22;19084;44.716;10.218;2022-09-17T08:28:46;15.90;99.90
32694;DHT22;19084;44.716;10.218;2022-09-17T08:31:20;15.90;99.90
32694;DHT22;19084;44.716;10.218;2022-09-17T08:33:53;15.90;99.90
32694;DHT22;19084;44.716;10.218;2022-09-17T08:36:26;15.70;99.90
32694;DHT22;19084;44.716;10.218;2022-09-17T08:38:59;15.60;99.90
32694;DHT22;19084;44.716;10.218;2022-09-17T08:41:44;15.50;99.90
32694;DHT22;19084;44.716;10.218;2022-09-17T08:44:36;15.60;99.90
32694;DHT22;19084;44.716;10.218;2022-09-17T08:47:13;15.60;99.90
32694;DHT22;19084;44.716;10.218;2022-09-17T08:49:51;15.70;99.90
32694;DHT22;19084;44.716;10.218;2022-09-17T09:01:03;15.70;99.90
32694;DHT22;19084;44.716;10.218;2022-09-17T09:03:56;15.70;99.90
32694;DHT22;19084;44.716;10.218;2022-09-17T09:06:41;15.70;99.90
32694;DHT22;19084;44.716;10.218;2022-09-17T09:09:19;15.70;99.90
32694;DHT22;19084;44.716;10.218;2022-09-17T09:12:00;15.60;99.90
32694;DHT22;19084;44.716;10.218;2022-09-17T09:14:45;15.60;99.90
32694;DHT22;19084;44.716;10.218;2022-09-17T09:17:22;15.60;99.90
32694;DHT22;19084;44.716;10.218;2022-09-17T09:19:57;15.50;99.90
32694;DHT22;19084;44.716;10.218;2022-09-17T09:25:25;15.40;99.90
32694;DHT22;19084;44.716;10.218;2022-09-17T09:28:14;15.40;99.90
32694;DHT22;19084;44.716;10.218;2022-09-17T09:33:40;15.30;99.90
32694;DHT22;19084;44.716;10.218;2022-09-17T09:36:19;15.40;99.90
32694;DHT22;19084;44.716;10.218;2022-09-17T09:38:58;15.40;99.90
32694;DHT22;19084;44.716;10.218;2022-09-17T09:44:16;15.40;99.90
32694;DHT22;19084;44.716;10.218;2022-09-17T09:49:26;15.40;99.90
32694;DHT22;19084;44.716;10.218;2022-09-17T09:52:18;15.40;99.90
32694;DHT22;19084;44.716;10.218;2022-09-17T09:57:49;15.30;99.90
32694;DHT22;19084;44.716;10.218;2022-09-17T10:03:19;15.20;99.90
32694;DHT22;19084;44.716;10.218;2022-09-17T10:05:56;15.30;99.90
32694;DHT22;19084;44.716;10.218;2022-09-17T10:08:34;15.30;99.90
32694;DHT22;19084;44.716;10.218;2022-09-17T10:13:44;15.40;99.90
32694;DHT22;19084;44.716;10.218;2022-09-17T10:19:12;15.50;99.90
32694;DHT22;19084;44.716;10.218;2022-09-17T10:21:45;15.50;99.90
32694;DHT22;19084;44.716;10.218;2022-09-17T10:24:33;15.50;99.90
32694;DHT22;19084;44.716;10.218;2022-09-17T10:27:13;15.50;99.90
32694;DHT22;19084;44.716;10.218;2022-09-17T10:29:50;15.40;99.90
32694;DHT22;19084;44.716;10.218;2022-09-17T10:32:24;15.60;99.90
32694;DHT22;19084;44.716;10.218;2022-09-17T10:35:00;15.70;99.90
32694;DHT22;19084;44.716;10.218;2022-09-17T10:37:45;15.90;99.90
32694;DHT22;19084;44.716;10.218;2022-09-17T10:43:14;16.20;99.90
32694;DHT22;19084;44.716;10.218;2022-09-17T10:45:59;16.40;99.90
32694;DHT22;19084;44.716;10.218;2022-09-17T10:48:36;16.70;99.90
32694;DHT22;19084;44.716;10.218;2022-09-17T10:51:18;16.80;99.90
32694;DHT22;19084;44.716;10.218;2022-09-17T10:56:34;17.00;99.90
32694;DHT22;19084;44.716;10.218;2022-09-17T11:01:48;17.10;99.90
32694;DHT22;19084;44.716;10.218;2022-09-17T11:13:02;17.20;99.90
32694;DHT22;19084;44.716;10.218;2022-09-17T11:35:47;18.20;99.90
32694;DHT22;19084;44.716;10.218;2022-09-17T11:38:24;18.40;99.90
32694;DHT22;19084;44.716;10.218;2022-09-17T11:43:36;18.70;99.90
32694;DHT22;19084;44.716;10.218;2022-09-17T11:46:13;18.80;99.90
32694;DHT22;19084;44.716;10.218;2022-09-17T11:48:57;19.00;99.90
32694;DHT22;19084;44.716;10.218;2022-09-17T11:51:37;19.10;99.90
32694;DHT22;19084;44.716;10.218;2022-09-17T12:02:51;19.70;99.90
32694;DHT22;19084;44.716;10.218;2022-09-17T12:13:51;20.10;99.90
32694;DHT22;19084;44.716;10.218;2022-09-17T12:16:32;20.10;99.90
32694;DHT22;19084;44.716;10.218;2022-09-17T12:19:29;20.20;99.90
32694;DHT22;19084;44.716;10.218;2022-09-17T12:24:51;20.40;99.90
32694;DHT22;19084;44.716;10.218;2022-09-17T12:30:36;20.40;99.90
32694;DHT22;19084;44.716;10.218;2022-09-17T12:33:18;20.50;99.90
32694;DHT22;19084;44.716;10.218;2022-09-17T12:36:02;20.60;99.90
32694;DHT22;19084;44.716;10.218;2022-09-17T12:38:44;20.60;99.90
32694;DHT22;19084;44.716;10.218;2022-09-17T12:44:31;20.50;99.90
32694;DHT22;19084;44.716;10.218;2022-09-17T12:47:32;20.60;99.90
32694;DHT22;19084;44.716;10.218;2022-09-17T13:04:32;20.90;99.90
32694;DHT22;19084;44.716;10.218;2022-09-17T13:25:08;21.20;99.90
32694;DHT22;19084;44.716;10.218;2022-09-17T13:27:44;21.30;99.90
32694;DHT22;19084;44.716;10.218;2022-09-17T13:30:18;21.40;99.90
32694;DHT22;19084;44.716;10.218;2022-09-17T13:32:53;21.40;99.90
32694;DHT22;19084;44.716;10.218;2022-09-17T13:38:00;21.40;99.90
32694;DHT22;19084;44.716;10.218;2022-09-17T13:40:35;21.50;99.90
32694;DHT22;19084;44.716;10.218;2022-09-17T13:43:13;21.40;99.90
32694;DHT22;19084;44.716;10.218;2022-09-17T13:48:46;21.40;99.90
32694;DHT22;19084;44.716;10.218;2022-09-17T13:54:10;21.40;99.90
32694;DHT22;19084;44.716;10.218;2022-09-17T13:56:46;21.40;99.90
32694;DHT22;19084;44.716;10.218;2022-09-17T13:59:23;21.40;99.90
32694;DHT22;19084;44.716;10.218;2022-09-17T14:04:45;21.40;99.90
32694;DHT22;19084;44.716;10.218;2022-09-17T14:10:00;21.40;99.90
32694;DHT22;19084;44.716;10.218;2022-09-17T14:21:22;21.40;99.90
32694;DHT22;19084;44.716;10.218;2022-09-17T14:24:03;21.40;99.90
32694;DHT22;19084;44.716;10.218;2022-09-17T14:32:20;21.40;99.90
32694;DHT22;19084;44.716;10.218;2022-09-17T14:35:00;21.40;99.90
32694;DHT22;19084;44.716;10.218;2022-09-17T14:37:35;21.40;99.90
32694;DHT22;19084;44.716;10.218;2022-09-17T14:40:10;21.30;99.90
32694;DHT22;19084;44.716;10.218;2022-09-17T14:42:47;21.30;99.90
32694;DHT22;19084;44.716;10.218;2022-09-17T14:45:31;21.20;99.90
32694;DHT22;19084;44.716;10.218;2022-09-17T14:51:24;21.20;99.90
32694;DHT22;19084;44.716;10.218;2022-09-17T14:54:08;21.20;99.90
32694;DHT22;19084;44.716;10.218;2022-09-17T14:56:48;21.30;99.90
32694;DHT22;19084;44.716;10.218;2022-09-17T15:04:57;21.30;99.90
32694;DHT22;19084;44.716;10.218;2022-09-17T15:07:31;21.20;99.90
32694;DHT22;19084;44.716;10.218;2022-09-17T15:10:07;21.20;99.90
32694;DHT22;19084;44.716;10.218;2022-09-17T15:12:42;21.20;99.90
32694;DHT22;19084;44.716;10.218;2022-09-17T15:15:19;21.20;99.90
32694;DHT22;19084;44.716;10.218;2022-09-17T15:17:53;21.30;99.90
32694;DHT22;19084;44.716;10.218;2022-09-17T15:20:28;21.30;99.90
32694;DHT22;19084;44.716;10.218;2022-09-17T15:25:36;21.20;99.90
32694;DHT22;19084;44.716;10.218;2022-09-17T15:31:15;21.20;99.90
32694;DHT22;19084;44.716;10.218;2022-09-17T15:33:48;21.10;99.90
32694;DHT22;19084;44.716;10.218;2022-09-17T15:36:25;21.10;99.90
32694;DHT22;19084;44.716;10.218;2022-09-17T15:39:29;21.10;99.90
32694;DHT22;19084;44.716;10.218;2022-09-17T15:42:02;21.00;99.90
32694;DHT22;19084;44.716;10.218;2022-09-17T15:44:36;21.00;99.90
32694;DHT22;19084;44.716;10.218;2022-09-17T15:52:49;20.80;99.90
32694;DHT22;19084;44.716;10.218;2022-09-17T15:55:31;20.80;99.90
32694;DHT22;19084;44.716;10.218;2022-09-17T15:58:20;20.80;99.90
32694;DHT22;19084;44.716;10.218;2022-09-17T16:04:06;20.70;99.90
32694;DHT22;19084;44.716;10.218;2022-09-17T16:06:48;20.60;99.90
32694;DHT22;19084;44.716;10.218;2022-09-17T16:09:38;20.50;99.90
32694;DHT22;19084;44.716;10.218;2022-09-17T16:12:13;20.50;99.90
32694;DHT22;19084;44.716;10.218;2022-09-17T16:14:49;20.40;99.90
32694;DHT22;19084;44.716;10.218;2022-09-17T16:17:25;20.30;99.90
32694;DHT22;19084;44.716;10.218;2022-09-17T16:20:07;20.30;99.90
32694;DHT22;19084;44.716;10.218;2022-09-17T16:22:42;20.20;99.90
32694;DHT22;19084;44.716;10.218;2022-09-17T16:25:17;20.20;99.90
32694;DHT22;19084;44.716;10.218;2022-09-17T16:27:53;20.10;99.90
32694;DHT22;19084;44.716;10.218;2022-09-17T16:30:27;20.10;99.90
32694;DHT22;19084;44.716;10.218;2022-09-17T16:33:00;20.00;99.90
32694;DHT22;19084;44.716;10.218;2022-09-17T16:35:35;20.00;99.90
32694;DHT22;19084;44.716;10.218;2022-09-17T16:38:10;19.90;99.90
32694;DHT22;19084;44.716;10.218;2022-09-17T16:40:45;19.80;99.90
32694;DHT22;19084;44.716;10.218;2022-09-17T16:43:19;19.80;99.90
32694;DHT22;19084;44.716;10.218;2022-09-17T16:46:01;19.70;99.90
32694;DHT22;19084;44.716;10.218;2022-09-17T16:48:34;19.70;99.90
32694;DHT22;19084;44.716;10.218;2022-09-17T16:51:08;19.60;99.90
32694;DHT22;19084;44.716;10.218;2022-09-17T16:53:42;19.60;99.90
32694;DHT22;19084;44.716;10.218;2022-09-17T16:56:15;19.50;99.90
32694;DHT22;19084;44.716;10.218;2022-09-17T16:58:47;19.50;99.90
32694;DHT22;19084;44.716;10.218;2022-09-17T17:01:20;19.40;99.90
32694;DHT22;19084;44.716;10.218;2022-09-17T17:03:53;19.40;99.90
32694;DHT22;19084;44.716;10.218;2022-09-17T17:06:27;19.40;99.90
32694;DHT22;19084;44.716;10.218;2022-09-17T17:08:59;19.40;99.90
32694;DHT22;19084;44.716;10.218;2022-09-17T17:11:33;19.30;99.90
32694;DHT22;19084;44.716;10.218;2022-09-17T17:14:06;19.30;99.90
32694;DHT22;19084;44.716;10.218;2022-09-17T17:16:45;19.20;99.90
32694;DHT22;19084;44.716;10.218;2022-09-17T17:19:17;19.20;99.90
32694;DHT22;19084;44.716;10.218;2022-09-17T17:21:51;19.10;99.90
32694;DHT22;19084;44.716;10.218;2022-09-17T17:24:24;19.00;99.90
32694;DHT22;19084;44.716;10.218;2022-09-17T17:26:57;19.00;99.90
32694;DHT22;19084;44.716;10.218;2022-09-17T17:29:29;18.90;99.90
32694;DHT22;19084;44.716;10.218;2022-09-17T17:32:03;18.80;99.90
32694;DHT22;19084;44.716;10.218;2022-09-17T17:34:36;18.70;99.90
32694;DHT22;19084;44.716;10.218;2022-09-17T17:37:09;18.60;99.90
32694;DHT22;19084;44.716;10.218;2022-09-17T17:39:41;18.50;99.90
32694;DHT22;19084;44.716;10.218;2022-09-17T17:42:14;18.40;99.90
32694;DHT22;19084;44.716;10.218;2022-09-17T17:44:47;18.30;99.90
32694;DHT22;19084;44.716;10.218;2022-09-17T17:47:20;18.10;99.90
32694;DHT22;19084;44.716;10.218;2022-09-17T17:49:52;18.10;99.90
32694;DHT22;19084;44.716;10.218;2022-09-17T17:52:25;18.00;99.90
32694;DHT22;19084;44.716;10.218;2022-09-17T17:54:58;17.90;99.90
32694;DHT22;19084;44.716;10.218;2022-09-17T17:57:31;17.80;99.90
32694;DHT22;19084;44.716;10.218;2022-09-17T18:00:04;17.60;99.90
32694;DHT22;19084;44.716;10.218;2022-09-17T18:02:42;17.60;99.90
32694;DHT22;19084;44.716;10.218;2022-09-17T18:05:15;17.50;99.90
32694;DHT22;19084;44.716;10.218;2022-09-17T18:07:48;17.40;99.90
32694;DHT22;19084;44.716;10.218;2022-09-17T18:10:21;17.40;99.90
32694;DHT22;19084;44.716;10.218;2022-09-17T18:12:54;17.40;99.90
32694;DHT22;19084;44.716;10.218;2022-09-17T18:15:26;17.30;99.90
32694;DHT22;19084;44.716;10.218;2022-09-17T18:17:59;17.30;99.90
32694;DHT22;19084;44.716;10.218;2022-09-17T18:20:32;17.30;99.90
32694;DHT22;19084;44.716;10.218;2022-09-17T18:23:04;17.20;99.90
32694;DHT22;19084;44.716;10.218;2022-09-17T18:25:38;17.10;99.90
32694;DHT22;19084;44.716;10.218;2022-09-17T18:28:10;17.10;99.90
32694;DHT22;19084;44.716;10.218;2022-09-17T18:30:43;17.10;99.90
32694;DHT22;19084;44.716;10.218;2022-09-17T18:33:18;17.00;99.90
32694;DHT22;19084;44.716;10.218;2022-09-17T18:35:51;16.90;99.90
32694;DHT22;19084;44.716;10.218;2022-09-17T18:38:28;16.80;99.90
32694;DHT22;19084;44.716;10.218;2022-09-17T18:41:03;16.70;99.90
32694;DHT22;19084;44.716;10.218;2022-09-17T18:43:37;16.60;99.90
32694;DHT22;19084;44.716;10.218;2022-09-17T18:46:09;16.70;99.90
32694;DHT22;19084;44.716;10.218;2022-09-17T18:48:42;16.70;99.90
32694;DHT22;19084;44.716;10.218;2022-09-17T18:51:16;16.60;99.90
32694;DHT22;19084;44.716;10.218;2022-09-17T18:53:48;16.70;99.90
32694;DHT22;19084;44.716;10.218;2022-09-17T18:56:25;14.50;99.90
32694;DHT22;19084;44.716;10.218;2022-09-17T18:59:00;16.70;99.90
32694;DHT22;19084;44.716;10.218;2022-09-17T19:01:39;16.80;99.90
32694;DHT22;19084;44.716;10.218;2022-09-17T19:04:12;16.80;99.90
32694;DHT22;19084;44.716;10.218;2022-09-17T19:06:45;16.80;99.90
32694;DHT22;19084;44.716;10.218;2022-09-17T19:09:17;16.80;99.90
32694;DHT22;19084;44.716;10.218;2022-09-17T19:11:50;16.80;99.90
32694;DHT22;19084;44.716;10.218;2022-09-17T19:14:23;16.70;99.90
32694;DHT22;19084;44.716;10.218;2022-09-17T19:16:56;16.60;99.90
32694;DHT22;19084;44.716;10.218;2022-09-17T19:19:29;16.50;99.90
32694;DHT22;19084;44.716;10.218;2022-09-17T19:22:01;16.50;99.90
32694;DHT22;19084;44.716;10.218;2022-09-17T19:24:34;16.40;99.90
32694;DHT22;19084;44.716;10.218;2022-09-17T19:27:07;16.40;99.90
32694;DHT22;19084;44.716;10.218;2022-09-17T19:29:40;16.40;99.90
32694;DHT22;19084;44.716;10.218;2022-09-17T19:32:12;16.40;99.90
32694;DHT22;19084;44.716;10.218;2022-09-17T19:34:45;16.50;99.90
32694;DHT22;19084;44.716;10.218;2022-09-17T19:37:17;16.50;99.90
32694;DHT22;19084;44.716;10.218;2022-09-17T19:39:50;16.50;99.90
32694;DHT22;19084;44.716;10.218;2022-09-17T19:42:23;16.60;99.90
32694;DHT22;19084;44.716;10.218;2022-09-17T19:44:57;16.60;99.90
32694;DHT22;19084;44.716;10.218;2022-09-17T19:47:31;16.60;99.90
32694;DHT22;19084;44.716;10.218;2022-09-17T19:50:05;16.60;99.90
32694;DHT22;19084;44.716;10.218;2022-09-17T19:52:39;16.60;99.90